• Join FlightAware (Why Join?)
  • Login
  • US Flag 
10:07PM EDT


 

Airport Tracker/Info


-or-


 

Live Flight TrackerFlight Track Log ✈ N5833S ✈ 22-May-2013 ✈ KAZO - KOXI

Flight Track Log - Related Links

Times and Time Zones

All times are in EDT time to prevent confusion due to time zone crossing. See the N5833S flight status page for this flight to view local times or setup timezone preferences in your user account.

Time Position Orientation Groundspeed Altitude Reporting Facility
EDT Latitude Longitude Course Direction KTS MPH feet Rate Location/Type
10:47AM 42.1492 -85.5964 212° Southwest 88 101 4,000  Level Chicago Center
10:48AM 42.1258 -85.6233 221° Southwest 96 110 4,100  Climbing Chicago Center
10:49AM 42.1033 -85.6633 233° Southwest 110 127 4,000 -60 Descending Chicago Center
10:50AM 42.0614 -85.7532 222° Southwest  Level FlightAware Approximate
10:50AM 42.0756 -85.7019 226° Southwest 126 145 4,000  Level Chicago Center
10:51AM 42.0329 -85.7873 222° Southwest  Level FlightAware Approximate
10:51AM 42.0469 -85.7403 225° Southwest 136 157 4,000  Level Chicago Center
10:52AM 42.0125 -85.7842 223° Southwest 141 162 4,000  Level Chicago Center
10:53AM 41.9833 -85.8192 222° Southwest 141 162 4,000  Level Chicago Center
10:54AM 41.9606 -85.8606 234° Southwest 139 160 4,000  Level Chicago Center
10:55AM 41.9389 -85.9081 238° Southwest 141 162 4,000  Level Chicago Center
10:56AM 41.9144 -85.9511 233° Southwest 144 166 4,000  Level Chicago Center
10:57AM 41.8908 -85.9956 234° Southwest 145 167 4,000  Level Chicago Center
10:58AM 41.8608 -86.0481 233° Southwest 147 169 4,000  Level Chicago Center
10:59AM 41.8367 -86.0911 233° Southwest 146 168 4,000  Level Chicago Center
11:00AM 41.8128 -86.1358 234° Southwest 146 168 4,000  Level Chicago Center
11:01AM 41.7886 -86.1786 233° Southwest 145 167 4,000  Level Chicago Center
11:02AM 41.7644 -86.2231 234° Southwest 146 168 4,000  Level Chicago Center
11:03AM 41.7408 -86.2689 235° Southwest 147 169 4,000  Level Chicago Center
11:04AM 41.7164 -86.3122 233° Southwest 147 169 4,000  Level Chicago Center
11:05AM 41.6864 -86.3639 232° Southwest 147 169 4,000  Level Chicago Center
11:06AM 41.6597 -86.4106 233° Southwest 147 169 4,000  Level Chicago Center
11:07AM 41.6378 -86.4536 236° Southwest 145 167 4,000  Level Chicago Center
11:08AM 41.6150 -86.4958 234° Southwest 142 163 4,000  Level Chicago Center
11:09AM 41.5914 -86.5397 234° Southwest 143 165 4,000 -240 Level Chicago Center
11:10AM 41.5664 -86.5828 232° Southwest 145 167 3,600 -420 Descending Chicago Center
11:11AM 41.5439 -86.6242 234° Southwest 143 165 3,200 -300 Descending Chicago Center
11:12AM 41.5194 -86.6667 232° Southwest 132 152 3,100 -60 Descending Chicago Center
11:13AM 41.4886 -86.6647 177° South 122 140 3,100 -120 Level Chicago Center
11:14AM 41.4592 -86.6631 178° South 114 131 2,900 -240 Descending Chicago Center